createdAt,value
2022-10-07T00:00:59.057Z,1020.22
2022-10-07T00:01:58.963Z,1020.22
2022-10-07T00:02:58.916Z,1020.17
2022-10-07T00:03:58.890Z,1020.19
2022-10-07T00:04:58.864Z,1020.19
2022-10-07T00:05:58.845Z,1020.23
2022-10-07T00:06:58.819Z,1020.20
2022-10-07T00:07:58.795Z,1020.17
2022-10-07T00:08:58.775Z,1020.16
2022-10-07T00:09:58.745Z,1020.10
2022-10-07T00:10:58.721Z,1020.11
2022-10-07T00:11:58.701Z,1020.12
2022-10-07T00:12:58.691Z,1020.09
2022-10-07T00:13:58.651Z,1020.11
2022-10-07T00:14:58.626Z,1020.04
2022-10-07T00:15:58.604Z,1020.05
2022-10-07T00:16:58.649Z,1020.01
2022-10-07T00:17:58.556Z,1020.00
2022-10-07T00:18:58.531Z,1020.01
2022-10-07T00:19:58.505Z,1020.02
2022-10-07T00:20:58.483Z,1019.95
2022-10-07T00:21:58.457Z,1019.97
2022-10-07T00:22:58.440Z,1019.96
2022-10-07T00:23:58.419Z,1019.98
2022-10-07T00:24:58.388Z,1019.97
2022-10-07T00:25:58.365Z,1020.01
2022-10-07T00:26:58.340Z,1019.95
2022-10-07T00:27:58.328Z,1019.92
2022-10-07T00:28:58.306Z,1019.95
2022-10-07T00:29:58.268Z,1019.90
2022-10-07T00:30:58.352Z,1019.90
2022-10-07T00:31:58.220Z,1019.89
2022-10-07T00:32:58.194Z,1019.85
2022-10-07T00:33:58.170Z,1019.85
2022-10-07T00:34:58.148Z,1019.82
2022-10-07T00:35:58.091Z,1019.82
2022-10-07T00:36:58.085Z,1019.81
2022-10-07T00:37:58.032Z,1019.82
2022-10-07T00:38:58.006Z,1019.80
2022-10-07T00:39:57.984Z,1019.79
2022-10-07T00:40:57.958Z,1019.76
2022-10-07T00:41:57.937Z,1019.76
2022-10-07T00:42:57.912Z,1019.77
2022-10-07T00:43:57.886Z,1019.75
2022-10-07T00:44:57.878Z,1019.75
2022-10-07T00:45:57.868Z,1019.77
2022-10-07T00:46:57.816Z,1019.71
2022-10-07T00:47:57.790Z,1019.71
2022-10-07T00:48:57.764Z,1019.73
2022-10-07T00:49:57.742Z,1019.71
2022-10-07T00:50:57.716Z,1019.67
2022-10-07T00:51:57.693Z,1019.67
2022-10-07T00:52:57.680Z,1019.64
2022-10-07T00:53:57.645Z,1019.68
2022-10-07T00:54:57.622Z,1019.68
2022-10-07T00:55:57.595Z,1019.67
2022-10-07T00:56:57.570Z,1019.67
2022-10-07T00:57:57.550Z,1019.63
2022-10-07T00:58:57.524Z,1019.65
2022-10-07T00:59:57.497Z,1019.62
2022-10-07T01:00:57.601Z,1019.62
2022-10-07T01:01:57.539Z,1019.60
2022-10-07T01:02:57.426Z,1019.59
2022-10-07T01:03:57.401Z,1019.53
2022-10-07T01:04:57.377Z,1019.56
2022-10-07T01:05:57.353Z,1019.57
2022-10-07T01:06:57.330Z,1019.51
2022-10-07T01:07:59.308Z,1019.52
2022-10-07T01:08:57.278Z,1019.51
2022-10-07T01:09:57.258Z,1019.47
2022-10-07T01:10:57.232Z,1019.48
2022-10-07T01:11:57.216Z,1019.45
2022-10-07T01:12:57.183Z,1019.44
2022-10-07T01:13:57.162Z,1019.46
2022-10-07T01:14:57.138Z,1019.45
2022-10-07T01:15:57.111Z,1019.40
2022-10-07T01:16:57.147Z,1019.42
2022-10-07T01:17:57.064Z,1019.43
2022-10-07T01:18:57.039Z,1019.40
2022-10-07T01:19:57.017Z,1019.38
2022-10-07T01:20:56.993Z,1019.40
2022-10-07T01:21:56.973Z,1019.36
2022-10-07T01:22:56.944Z,1019.33
2022-10-07T01:23:56.920Z,1019.30
2022-10-07T01:24:56.897Z,1019.31
2022-10-07T01:25:56.870Z,1019.33
2022-10-07T01:26:56.842Z,1019.32
2022-10-07T01:27:56.926Z,1019.29
2022-10-07T01:28:56.794Z,1019.32
2022-10-07T01:29:56.772Z,1019.27
2022-10-07T01:30:56.771Z,1019.30
2022-10-07T01:31:56.726Z,1019.27
2022-10-07T01:32:56.713Z,1019.23
2022-10-07T01:33:56.674Z,1019.25
2022-10-07T01:34:56.650Z,1019.20
2022-10-07T01:35:56.626Z,1019.22
2022-10-07T01:36:56.603Z,1019.19
2022-10-07T01:37:56.577Z,1019.26
2022-10-07T01:38:56.552Z,1019.21
2022-10-07T01:39:56.532Z,1019.23
2022-10-07T01:40:56.504Z,1019.19
2022-10-07T01:41:56.483Z,1019.18
2022-10-07T01:42:56.456Z,1019.18
2022-10-07T01:43:56.433Z,1019.14
2022-10-07T01:44:56.411Z,1019.07
2022-10-07T01:45:56.444Z,1019.11
2022-10-07T01:46:56.359Z,1019.09
2022-10-07T01:47:56.335Z,1019.09
2022-10-07T01:48:56.331Z,1019.03
2022-10-07T01:49:56.288Z,1018.96
2022-10-07T01:50:56.264Z,1018.99
2022-10-07T01:51:56.238Z,1018.98
2022-10-07T01:52:56.234Z,1018.95
2022-10-07T01:53:56.191Z,1018.95
2022-10-07T01:54:56.169Z,1018.96
2022-10-07T01:55:56.143Z,1018.93
2022-10-07T01:56:56.121Z,1018.92
2022-10-07T01:57:56.095Z,1018.89
2022-10-07T01:58:56.074Z,1018.89
2022-10-07T01:59:56.049Z,1018.87
2022-10-07T02:00:56.025Z,1018.88
2022-10-07T02:01:56.079Z,1018.84
2022-10-07T02:02:55.977Z,1018.86
2022-10-07T02:03:56.043Z,1018.82
2022-10-07T02:04:55.947Z,1018.79
2022-10-07T02:05:55.905Z,1018.79
2022-10-07T02:06:55.882Z,1018.76
2022-10-07T02:07:55.854Z,1018.77
2022-10-07T02:08:55.833Z,1018.75
2022-10-07T02:09:55.809Z,1018.71
2022-10-07T02:10:55.786Z,1018.75
2022-10-07T02:11:55.761Z,1018.72
2022-10-07T02:12:55.736Z,1018.73
2022-10-07T02:13:55.719Z,1018.74
2022-10-07T02:14:55.689Z,1018.74
2022-10-07T02:15:55.696Z,1018.68
2022-10-07T02:16:55.639Z,1018.68
2022-10-07T02:17:55.617Z,1018.71
2022-10-07T02:18:55.591Z,1018.66
2022-10-07T02:19:55.568Z,1018.68
2022-10-07T02:20:55.562Z,1018.66
2022-10-07T02:21:55.518Z,1018.68
2022-10-07T02:22:55.497Z,1018.68
2022-10-07T02:23:55.473Z,1018.64
2022-10-07T02:24:55.447Z,1018.65
2022-10-07T02:25:55.424Z,1018.65
2022-10-07T02:26:55.403Z,1018.67
2022-10-07T02:27:55.373Z,1018.60
2022-10-07T02:28:55.357Z,1018.61
2022-10-07T02:29:55.331Z,1018.64
2022-10-07T02:30:55.315Z,1018.63
2022-10-07T02:31:55.278Z,1018.59
2022-10-07T02:32:55.266Z,1018.56
2022-10-07T02:33:55.231Z,1018.50
2022-10-07T02:34:55.208Z,1018.56
2022-10-07T02:35:55.186Z,1018.51
2022-10-07T02:36:55.178Z,1018.47
2022-10-07T02:37:55.134Z,1018.41
2022-10-07T02:38:55.114Z,1018.42
2022-10-07T02:39:55.090Z,1018.44
2022-10-07T02:40:55.065Z,1018.40
2022-10-07T02:41:55.043Z,1018.35
2022-10-07T02:42:55.017Z,1018.34
2022-10-07T02:43:54.998Z,1018.32
2022-10-07T02:44:54.968Z,1018.34
2022-10-07T02:45:55.069Z,1018.35
2022-10-07T02:46:54.924Z,1018.31
2022-10-07T02:47:54.896Z,1018.28
2022-10-07T02:48:54.878Z,1018.27
2022-10-07T02:49:54.848Z,1018.31
2022-10-07T02:50:54.829Z,1018.32
2022-10-07T02:51:54.800Z,1018.29
2022-10-07T02:52:54.798Z,1018.27
2022-10-07T02:53:54.754Z,1018.26
2022-10-07T02:54:54.731Z,1018.25
2022-10-07T02:55:54.703Z,1018.26
2022-10-07T02:56:54.684Z,1018.25
2022-10-07T02:57:54.658Z,1018.24
2022-10-07T02:58:54.636Z,1018.24
2022-10-07T02:59:54.610Z,1018.23
2022-10-07T03:00:54.587Z,1018.20
2022-10-07T03:01:54.607Z,1018.20
2022-10-07T03:02:54.549Z,1018.24
2022-10-07T03:03:54.572Z,1018.25
2022-10-07T03:04:54.491Z,1018.22
2022-10-07T03:05:54.465Z,1018.22
2022-10-07T03:06:54.443Z,1018.22
2022-10-07T03:07:54.417Z,1018.21
2022-10-07T03:08:54.426Z,1018.19
2022-10-07T03:09:54.376Z,1018.16
2022-10-07T03:10:54.346Z,1018.17
2022-10-07T03:11:54.323Z,1018.15
2022-10-07T03:12:54.300Z,1018.18
2022-10-07T03:13:54.276Z,1018.11
2022-10-07T03:14:54.252Z,1018.13
2022-10-07T03:15:54.268Z,1018.12
2022-10-07T03:16:54.205Z,1018.15
2022-10-07T03:17:54.180Z,1018.12
2022-10-07T03:18:54.160Z,1018.10
2022-10-07T03:19:54.136Z,1018.12
2022-10-07T03:20:54.105Z,1018.08
2022-10-07T03:21:54.083Z,1018.10
2022-10-07T03:22:54.058Z,1018.08
2022-10-07T03:23:54.042Z,1018.10
2022-10-07T03:24:54.028Z,1018.09
2022-10-07T03:25:53.997Z,1018.08
2022-10-07T03:26:53.963Z,1018.04
2022-10-07T03:27:53.936Z,1018.03
2022-10-07T03:28:53.922Z,1018.02
2022-10-07T03:29:53.891Z,1017.99
2022-10-07T03:30:53.921Z,1017.99
2022-10-07T03:31:53.842Z,1017.97
2022-10-07T03:32:53.820Z,1017.96
2022-10-07T03:33:53.791Z,1018.02
2022-10-07T03:34:53.770Z,1017.95
2022-10-07T03:35:53.747Z,1017.92
2022-10-07T03:36:53.725Z,1017.90
2022-10-07T03:37:53.696Z,1017.94
2022-10-07T03:38:53.676Z,1017.95
2022-10-07T03:39:53.649Z,1017.93
2022-10-07T03:40:53.642Z,1017.89
2022-10-07T03:41:53.600Z,1017.86
2022-10-07T03:42:53.580Z,1017.92
2022-10-07T03:43:53.550Z,1017.92
2022-10-07T03:44:53.527Z,1017.93
2022-10-07T03:45:53.505Z,1017.91
2022-10-07T03:46:53.545Z,1017.92
2022-10-07T03:47:53.455Z,1017.91
2022-10-07T03:48:53.433Z,1017.87
2022-10-07T03:49:53.406Z,1017.87
2022-10-07T03:50:53.387Z,1017.80
2022-10-07T03:51:53.361Z,1017.91
2022-10-07T03:52:53.336Z,1017.82
2022-10-07T03:53:53.316Z,1017.81
2022-10-07T03:54:53.287Z,1017.80
2022-10-07T03:55:53.261Z,1017.78
2022-10-07T03:56:53.253Z,1017.80
2022-10-07T03:57:57.033Z,1017.79
2022-10-07T03:58:53.191Z,1017.77
2022-10-07T03:59:53.163Z,1017.79
2022-10-07T04:00:53.139Z,1017.76
2022-10-07T04:01:53.157Z,1017.77
2022-10-07T04:02:53.185Z,1017.72
2022-10-07T04:03:53.068Z,1017.73
2022-10-07T04:04:53.042Z,1017.70
2022-10-07T04:05:53.017Z,1017.70
2022-10-07T04:06:52.997Z,1017.63
2022-10-07T04:07:52.968Z,1017.66
2022-10-07T04:08:52.943Z,1017.64
2022-10-07T04:09:52.920Z,1017.63
2022-10-07T04:10:52.897Z,1017.58
2022-10-07T04:11:52.869Z,1017.62
2022-10-07T04:12:52.861Z,1017.58
2022-10-07T04:13:52.821Z,1017.54
2022-10-07T04:14:52.799Z,1017.56
2022-10-07T04:15:52.805Z,1017.52
2022-10-07T04:16:52.748Z,1017.54
2022-10-07T04:17:52.723Z,1017.50
2022-10-07T04:18:52.701Z,1017.50
2022-10-07T04:19:52.674Z,1017.48
2022-10-07T04:20:52.652Z,1017.49
2022-10-07T04:21:52.623Z,1017.51
2022-10-07T04:22:52.603Z,1017.49
2022-10-07T04:23:52.576Z,1017.48
2022-10-07T04:24:52.553Z,1017.46
2022-10-07T04:25:52.526Z,1017.47
2022-10-07T04:26:52.507Z,1017.49
2022-10-07T04:27:52.489Z,1017.47
2022-10-07T04:28:52.475Z,1017.43
2022-10-07T04:29:52.426Z,1017.44
2022-10-07T04:30:52.404Z,1017.40
2022-10-07T04:31:52.483Z,1017.42
2022-10-07T04:32:52.354Z,1017.46
2022-10-07T04:33:52.330Z,1017.42
2022-10-07T04:34:52.307Z,1017.43
2022-10-07T04:35:52.279Z,1017.42
2022-10-07T04:36:52.255Z,1017.45
2022-10-07T04:37:52.232Z,1017.44
2022-10-07T04:38:52.210Z,1017.45
2022-10-07T04:40:00.759Z,1017.44
2022-10-07T04:40:52.156Z,1017.45
2022-10-07T04:41:52.131Z,1017.45
2022-10-07T04:42:52.108Z,1017.44
2022-10-07T04:43:56.644Z,1017.42
2022-10-07T04:44:52.134Z,1017.44
2022-10-07T04:45:52.030Z,1017.40
2022-10-07T04:46:52.173Z,1017.43
2022-10-07T04:47:51.980Z,1017.40
2022-10-07T04:48:51.957Z,1017.39
2022-10-07T04:49:51.931Z,1017.38
2022-10-07T04:50:51.910Z,1017.41
2022-10-07T04:51:51.883Z,1017.43
2022-10-07T04:52:51.861Z,1017.39
2022-10-07T04:53:55.784Z,1017.41
2022-10-07T04:54:51.811Z,1017.34
2022-10-07T04:55:51.861Z,1017.37
2022-10-07T04:56:51.760Z,1017.35
2022-10-07T04:57:51.732Z,1017.30
2022-10-07T04:58:51.713Z,1017.31
2022-10-07T04:59:51.683Z,1017.28
2022-10-07T05:00:51.797Z,1017.29
2022-10-07T05:01:51.670Z,1017.29
2022-10-07T05:02:51.612Z,1017.26
2022-10-07T05:03:51.586Z,1017.29
2022-10-07T05:04:51.561Z,1017.31
2022-10-07T05:05:51.536Z,1017.29
2022-10-07T05:06:51.513Z,1017.28
2022-10-07T05:07:51.485Z,1017.23
2022-10-07T05:08:51.465Z,1017.28
2022-10-07T05:09:51.436Z,1017.27
2022-10-07T05:10:51.414Z,1017.28
2022-10-07T05:11:51.386Z,1017.28
2022-10-07T05:12:55.782Z,1017.25
2022-10-07T05:13:51.342Z,1017.27
2022-10-07T05:14:51.313Z,1017.23
2022-10-07T05:15:51.349Z,1017.24
2022-10-07T05:16:51.282Z,1017.26
2022-10-07T05:17:51.237Z,1017.23
2022-10-07T05:18:51.213Z,1017.25
2022-10-07T05:19:51.186Z,1017.28
2022-10-07T05:20:51.164Z,1017.26
2022-10-07T05:21:51.139Z,1017.26
2022-10-07T05:22:51.117Z,1017.22
2022-10-07T05:23:51.087Z,1017.22
2022-10-07T05:24:51.066Z,1017.23
2022-10-07T05:25:51.038Z,1017.23
2022-10-07T05:26:51.015Z,1017.24
2022-10-07T05:27:50.989Z,1017.24
2022-10-07T05:28:50.965Z,1017.19
2022-10-07T05:29:50.941Z,1017.22
2022-10-07T05:30:50.918Z,1017.19
2022-10-07T05:31:50.963Z,1017.18
2022-10-07T05:32:50.883Z,1017.16
2022-10-07T05:33:50.839Z,1017.20
2022-10-07T05:34:50.817Z,1017.14
2022-10-07T05:35:50.790Z,1017.13
2022-10-07T05:36:50.767Z,1017.13
2022-10-07T05:37:51.460Z,1017.09
2022-10-07T05:38:50.717Z,1017.09
2022-10-07T05:39:50.692Z,1017.06
2022-10-07T05:40:50.669Z,1017.06
2022-10-07T05:41:50.643Z,1017.09
2022-10-07T05:42:50.620Z,1017.06
2022-10-07T05:43:50.591Z,1017.14
2022-10-07T05:44:50.568Z,1017.08
2022-10-07T05:45:50.594Z,1017.07
2022-10-07T05:46:50.522Z,1017.09
2022-10-07T05:47:50.491Z,1017.11
2022-10-07T05:48:50.489Z,1017.13
2022-10-07T05:49:50.446Z,1017.10
2022-10-07T05:50:50.421Z,1017.07
2022-10-07T05:51:50.393Z,1017.06
2022-10-07T05:52:50.369Z,1017.10
2022-10-07T05:53:50.346Z,1017.08
2022-10-07T05:54:50.321Z,1017.09
2022-10-07T05:55:50.293Z,1017.04
2022-10-07T05:56:50.277Z,1017.06
2022-10-07T05:57:50.246Z,1017.07
2022-10-07T05:58:50.220Z,1017.06
2022-10-07T05:59:50.197Z,1017.02
2022-10-07T06:00:50.170Z,1017.04
2022-10-07T06:01:50.197Z,1017.05
2022-10-07T06:02:50.286Z,1017.01
2022-10-07T06:03:50.094Z,1017.00
2022-10-07T06:04:50.198Z,1017.01
2022-10-07T06:05:50.045Z,1017.01
2022-10-07T06:06:50.025Z,1016.98
2022-10-07T06:07:49.996Z,1016.98
2022-10-07T06:08:49.975Z,1016.99
2022-10-07T06:09:49.946Z,1016.99
2022-10-07T06:10:49.921Z,1016.96
2022-10-07T06:11:49.895Z,1016.94
2022-10-07T06:12:49.868Z,1016.92
2022-10-07T06:13:49.845Z,1016.93
2022-10-07T06:14:49.816Z,1016.91
2022-10-07T06:15:49.795Z,1016.95
2022-10-07T06:16:49.813Z,1016.92
2022-10-07T06:17:49.830Z,1016.93
2022-10-07T06:18:49.718Z,1016.95
2022-10-07T06:19:49.692Z,1016.93
2022-10-07T06:20:49.683Z,1016.91
2022-10-07T06:21:49.650Z,1016.91
2022-10-07T06:22:49.627Z,1016.88
2022-10-07T06:23:49.592Z,1016.88
2022-10-07T06:24:49.566Z,1016.90
2022-10-07T06:25:49.545Z,1016.90
2022-10-07T06:26:49.516Z,1016.88
2022-10-07T06:27:53.920Z,1016.92
2022-10-07T06:28:49.498Z,1016.96
2022-10-07T06:29:49.443Z,1016.94
2022-10-07T06:30:49.443Z,1016.91
2022-10-07T06:31:49.391Z,1016.95
2022-10-07T06:32:49.366Z,1016.96
2022-10-07T06:33:49.342Z,1016.95
2022-10-07T06:34:49.318Z,1016.97
2022-10-07T06:35:49.294Z,1017.00
2022-10-07T06:36:49.290Z,1016.98
2022-10-07T06:37:49.246Z,1017.05
2022-10-07T06:38:49.217Z,1017.03
2022-10-07T06:39:49.195Z,1017.03
2022-10-07T06:40:49.169Z,1017.04
2022-10-07T06:41:49.144Z,1017.04
2022-10-07T06:42:49.119Z,1017.05
2022-10-07T06:43:49.097Z,1017.04
2022-10-07T06:44:49.071Z,1017.07
2022-10-07T06:45:49.110Z,1017.05
2022-10-07T06:46:49.018Z,1017.04
2022-10-07T06:47:48.998Z,1017.07
2022-10-07T06:48:48.970Z,1017.06
2022-10-07T06:49:48.946Z,1017.06
2022-10-07T06:50:48.918Z,1017.04
2022-10-07T06:51:48.894Z,1017.07
2022-10-07T06:52:48.888Z,1017.05
2022-10-07T06:53:48.846Z,1017.06
2022-10-07T06:54:48.820Z,1017.07
2022-10-07T06:55:48.793Z,1017.07
2022-10-07T06:56:48.769Z,1017.06
2022-10-07T06:57:48.746Z,1017.06
2022-10-07T06:58:48.721Z,1017.08
2022-10-07T06:59:48.696Z,1017.10
2022-10-07T07:00:48.716Z,1017.08
2022-10-07T07:01:48.649Z,1017.06
2022-10-07T07:02:48.703Z,1017.08
2022-10-07T07:03:48.597Z,1017.05
2022-10-07T07:04:48.608Z,1017.07
2022-10-07T07:05:49.784Z,1017.02
2022-10-07T07:06:48.520Z,1017.02
2022-10-07T07:07:49.309Z,1017.04
2022-10-07T07:08:48.491Z,1017.04
2022-10-07T07:09:48.447Z,1017.00
2022-10-07T07:10:48.421Z,1017.00
2022-10-07T07:11:50.828Z,1017.01
2022-10-07T07:12:48.792Z,1016.99
2022-10-07T07:13:48.349Z,1016.94
2022-10-07T07:14:48.325Z,1016.99
2022-10-07T07:15:48.299Z,1016.91
2022-10-07T07:16:48.329Z,1016.93
2022-10-07T07:17:48.742Z,1016.94
2022-10-07T07:18:48.224Z,1016.94
2022-10-07T07:19:48.202Z,1016.89
2022-10-07T07:20:48.185Z,1016.89
2022-10-07T07:21:50.556Z,1016.95
2022-10-07T07:22:48.125Z,1016.94
2022-10-07T07:23:48.102Z,1016.95
2022-10-07T07:24:48.136Z,1016.91
2022-10-07T07:25:48.051Z,1016.95
2022-10-07T07:26:48.026Z,1016.97
2022-10-07T07:27:52.470Z,1016.99
2022-10-07T07:28:48.025Z,1016.95
2022-10-07T07:29:47.956Z,1016.96
2022-10-07T07:30:47.971Z,1016.96
2022-10-07T07:31:47.918Z,1016.94
2022-10-07T07:32:47.878Z,1016.93
2022-10-07T07:33:47.857Z,1016.94
2022-10-07T07:34:47.863Z,1016.94
2022-10-07T07:35:47.807Z,1016.93
2022-10-07T07:36:47.782Z,1016.97
2022-10-07T07:37:48.258Z,1016.97
2022-10-07T07:38:47.732Z,1016.96
2022-10-07T07:39:47.710Z,1016.95
2022-10-07T07:40:47.739Z,1016.99
2022-10-07T07:41:47.666Z,1017.00
2022-10-07T07:42:47.634Z,1016.94
2022-10-07T07:43:47.609Z,1016.94
2022-10-07T07:44:47.584Z,1016.95
2022-10-07T07:45:47.591Z,1016.91
2022-10-07T07:46:47.537Z,1016.91
2022-10-07T07:47:48.005Z,1016.91
2022-10-07T07:48:47.491Z,1016.93
2022-10-07T07:49:47.465Z,1016.90
2022-10-07T07:50:47.439Z,1016.91
2022-10-07T07:51:47.416Z,1016.90
2022-10-07T07:52:47.387Z,1016.88
2022-10-07T07:53:47.376Z,1016.86
2022-10-07T07:54:47.343Z,1016.87
2022-10-07T07:55:47.318Z,1016.91
2022-10-07T07:56:47.311Z,1016.88
2022-10-07T07:57:47.650Z,1016.88
2022-10-07T07:58:47.246Z,1016.82
2022-10-07T07:59:47.220Z,1016.89
2022-10-07T08:00:47.194Z,1016.86
2022-10-07T08:01:47.173Z,1016.91
2022-10-07T08:02:47.204Z,1016.84
2022-10-07T08:03:47.124Z,1016.87
2022-10-07T08:04:47.098Z,1016.87
2022-10-07T08:05:47.077Z,1016.91
2022-10-07T08:06:47.050Z,1016.92
2022-10-07T08:07:47.655Z,1016.86
2022-10-07T08:08:47.000Z,1016.83
2022-10-07T08:09:46.980Z,1016.86
2022-10-07T08:10:51.680Z,1016.86
2022-10-07T08:11:46.932Z,1016.87
2022-10-07T08:12:47.068Z,1016.88
2022-10-07T08:13:46.887Z,1016.92
2022-10-07T08:14:46.862Z,1016.91
2022-10-07T08:15:46.923Z,1016.87
2022-10-07T08:16:46.810Z,1016.88
2022-10-07T08:17:47.100Z,1016.90
2022-10-07T08:18:46.764Z,1016.85
2022-10-07T08:19:46.740Z,1016.85
2022-10-07T08:20:46.713Z,1016.88
2022-10-07T08:21:46.694Z,1016.90
2022-10-07T08:22:46.669Z,1016.89
2022-10-07T08:23:46.644Z,1016.90
2022-10-07T08:24:46.620Z,1016.84
2022-10-07T08:25:46.600Z,1016.87
2022-10-07T08:26:46.573Z,1016.88
2022-10-07T08:27:46.798Z,1016.81
2022-10-07T08:28:46.544Z,1016.85
2022-10-07T08:29:46.504Z,1016.76
2022-10-07T08:30:46.586Z,1016.82
2022-10-07T08:31:46.452Z,1016.83
2022-10-07T08:32:46.432Z,1016.84
2022-10-07T08:33:46.406Z,1016.79
2022-10-07T08:34:46.383Z,1016.81
2022-10-07T08:35:46.362Z,1016.78
2022-10-07T08:36:46.333Z,1016.80
2022-10-07T08:37:46.698Z,1016.84
2022-10-07T08:38:46.893Z,1016.79
2022-10-07T08:39:46.266Z,1016.83
2022-10-07T08:40:46.243Z,1016.82
2022-10-07T08:41:46.219Z,1016.75
2022-10-07T08:42:46.194Z,1016.76
2022-10-07T08:43:46.171Z,1016.71
2022-10-07T08:44:46.163Z,1016.75
2022-10-07T08:45:46.125Z,1016.74
2022-10-07T08:46:46.101Z,1016.65
2022-10-07T08:47:46.417Z,1016.68
2022-10-07T08:48:46.068Z,1016.65
2022-10-07T08:49:46.060Z,1016.67
2022-10-07T08:50:46.008Z,1016.65
2022-10-07T08:51:45.982Z,1016.68
2022-10-07T08:52:45.958Z,1016.62
2022-10-07T08:53:45.938Z,1016.65
2022-10-07T08:54:45.913Z,1016.63
2022-10-07T08:55:45.891Z,1016.61
2022-10-07T08:56:45.868Z,1016.60
2022-10-07T08:57:46.336Z,1016.60
2022-10-07T08:58:45.818Z,1016.53
2022-10-07T08:59:45.801Z,1016.54
2022-10-07T09:00:45.791Z,1016.51
2022-10-07T09:01:45.800Z,1016.48
2022-10-07T09:02:45.852Z,1016.44
2022-10-07T09:03:45.707Z,1016.49
2022-10-07T09:04:45.680Z,1016.46
2022-10-07T09:05:45.664Z,1016.43
2022-10-07T09:06:45.635Z,1016.41
2022-10-07T09:07:46.018Z,1016.45
2022-10-07T09:08:45.589Z,1016.45
2022-10-07T09:09:45.569Z,1016.44
2022-10-07T09:10:45.541Z,1016.46
2022-10-07T09:11:45.521Z,1016.47
2022-10-07T09:12:45.498Z,1016.46
2022-10-07T09:13:45.475Z,1016.42
2022-10-07T09:14:45.450Z,1016.45
2022-10-07T09:15:45.461Z,1016.43
2022-10-07T09:16:45.492Z,1016.45
2022-10-07T09:17:45.436Z,1016.40
2022-10-07T09:18:45.358Z,1016.39
2022-10-07T09:19:45.336Z,1016.39
2022-10-07T09:20:45.313Z,1016.36
2022-10-07T09:21:45.291Z,1016.40
2022-10-07T09:22:45.267Z,1016.34
2022-10-07T09:23:45.246Z,1016.35
2022-10-07T09:24:45.226Z,1016.35
2022-10-07T09:25:45.201Z,1016.35
2022-10-07T09:26:45.177Z,1016.35
2022-10-07T09:27:45.420Z,1016.31
2022-10-07T09:28:45.229Z,1016.35
2022-10-07T09:29:45.120Z,1016.34
2022-10-07T09:30:45.153Z,1016.31
2022-10-07T09:31:45.063Z,1016.34
2022-10-07T09:32:45.058Z,1016.33
2022-10-07T09:33:45.020Z,1016.31
2022-10-07T09:34:44.996Z,1016.31
2022-10-07T09:35:44.976Z,1016.28
2022-10-07T09:36:44.950Z,1016.29
2022-10-07T09:37:45.212Z,1016.29
2022-10-07T09:38:44.905Z,1016.29
2022-10-07T09:39:44.890Z,1016.30
2022-10-07T09:40:44.861Z,1016.31
2022-10-07T09:41:44.838Z,1016.24
2022-10-07T09:42:44.816Z,1016.23
2022-10-07T09:43:44.796Z,1016.24
2022-10-07T09:44:44.771Z,1016.27
2022-10-07T09:45:44.754Z,1016.25
2022-10-07T09:46:44.783Z,1016.23
2022-10-07T09:47:45.084Z,1016.22
2022-10-07T09:48:44.721Z,1016.21
2022-10-07T09:49:44.665Z,1016.17
2022-10-07T09:50:44.640Z,1016.18
2022-10-07T09:51:44.619Z,1016.18
2022-10-07T09:52:44.598Z,1016.15
2022-10-07T09:53:44.576Z,1016.22
2022-10-07T09:54:44.555Z,1016.19
2022-10-07T09:55:44.535Z,1016.18
2022-10-07T09:56:44.508Z,1016.20
2022-10-07T09:57:44.803Z,1016.13
2022-10-07T09:58:44.469Z,1016.16
2022-10-07T09:59:44.447Z,1016.14
2022-10-07T10:00:44.439Z,1016.18
2022-10-07T10:01:44.467Z,1016.18
2022-10-07T10:02:44.556Z,1016.17
2022-10-07T10:03:44.411Z,1016.13
2022-10-07T10:04:44.359Z,1016.14
2022-10-07T10:05:44.325Z,1016.14
2022-10-07T10:06:44.300Z,1016.12
2022-10-07T10:07:44.576Z,1016.09
2022-10-07T10:08:44.273Z,1016.12
2022-10-07T10:09:44.253Z,1016.06
2022-10-07T10:10:44.218Z,1016.11
2022-10-07T10:11:44.200Z,1016.13
2022-10-07T10:12:44.518Z,1016.07
2022-10-07T10:13:44.157Z,1016.07
2022-10-07T10:14:44.137Z,1016.08
2022-10-07T10:15:44.152Z,1016.05
2022-10-07T10:16:44.095Z,1016.08
2022-10-07T10:17:44.078Z,1016.04
2022-10-07T10:18:44.056Z,1016.04
2022-10-07T10:19:44.035Z,1015.96
2022-10-07T10:20:44.034Z,1016.01
2022-10-07T10:21:43.999Z,1016.05
2022-10-07T10:22:44.209Z,1015.98
2022-10-07T10:23:43.953Z,1016.00
2022-10-07T10:24:43.937Z,1015.98
2022-10-07T10:25:43.918Z,1015.98
2022-10-07T10:26:43.898Z,1016.01
2022-10-07T10:27:43.877Z,1016.03
2022-10-07T10:28:43.904Z,1015.98
2022-10-07T10:29:43.850Z,1015.96
2022-10-07T10:30:43.821Z,1015.93
2022-10-07T10:31:43.802Z,1015.90
2022-10-07T10:32:44.216Z,1015.96
2022-10-07T10:33:43.762Z,1015.90
2022-10-07T10:34:43.743Z,1015.91
2022-10-07T10:35:43.722Z,1015.91
2022-10-07T10:36:43.721Z,1015.89
2022-10-07T10:37:43.685Z,1015.87
2022-10-07T10:38:43.666Z,1015.82
2022-10-07T10:39:43.644Z,1015.81
2022-10-07T10:40:43.628Z,1015.80
2022-10-07T10:41:43.606Z,1015.78
2022-10-07T10:42:43.937Z,1015.69
2022-10-07T10:43:43.568Z,1015.68
2022-10-07T10:44:43.549Z,1015.74
2022-10-07T10:45:43.531Z,1015.68
2022-10-07T10:46:45.541Z,1015.67
2022-10-07T10:47:43.495Z,1015.66
2022-10-07T10:48:43.475Z,1015.61
2022-10-07T10:49:43.454Z,1015.65
2022-10-07T10:50:43.436Z,1015.58
2022-10-07T10:51:43.415Z,1015.58
2022-10-07T10:52:43.750Z,1015.61
2022-10-07T10:53:43.378Z,1015.60
2022-10-07T10:54:43.365Z,1015.54
2022-10-07T10:55:43.343Z,1015.52
2022-10-07T10:56:43.325Z,1015.50
2022-10-07T10:57:43.304Z,1015.54
2022-10-07T10:58:43.292Z,1015.44
2022-10-07T10:59:43.269Z,1015.46
2022-10-07T11:00:43.250Z,1015.42
2022-10-07T11:01:43.301Z,1015.46
2022-10-07T11:02:43.650Z,1015.43
2022-10-07T11:03:43.208Z,1015.44
2022-10-07T11:04:43.178Z,1015.35
2022-10-07T11:05:43.155Z,1015.50
2022-10-07T11:06:43.137Z,1015.42
2022-10-07T11:07:43.116Z,1015.30
2022-10-07T11:08:43.292Z,1015.33
2022-10-07T11:09:43.076Z,1015.31
2022-10-07T11:10:43.284Z,1015.28
2022-10-07T11:11:43.040Z,1015.22
2022-10-07T11:12:43.402Z,1015.20
2022-10-07T11:13:43.002Z,1015.22
2022-10-07T11:14:42.984Z,1015.21
2022-10-07T11:15:43.026Z,1015.20
2022-10-07T11:16:42.945Z,1015.14
2022-10-07T11:17:42.926Z,1015.17
2022-10-07T11:18:45.933Z,1015.16
2022-10-07T11:19:42.887Z,1015.11
2022-10-07T11:20:44.814Z,1015.11
2022-10-07T11:21:42.843Z,1015.11
2022-10-07T11:22:43.041Z,1015.11
2022-10-07T11:23:42.804Z,1015.01
2022-10-07T11:24:42.803Z,1014.96
2022-10-07T11:25:42.768Z,1014.98
2022-10-07T11:26:42.748Z,1014.93
2022-10-07T11:27:42.725Z,1014.92
2022-10-07T11:28:42.779Z,1014.92
2022-10-07T11:29:42.696Z,1014.97
2022-10-07T11:30:42.668Z,1014.87
2022-10-07T11:31:42.773Z,1014.89
2022-10-07T11:32:42.984Z,1014.82
2022-10-07T11:33:42.607Z,1014.83
2022-10-07T11:34:42.590Z,1014.79
2022-10-07T11:35:42.566Z,1014.79
2022-10-07T11:36:42.545Z,1014.79
2022-10-07T11:37:42.525Z,1014.75
2022-10-07T11:38:42.507Z,1014.67
2022-10-07T11:39:42.484Z,1014.66
2022-10-07T11:40:42.497Z,1014.72
2022-10-07T11:41:42.444Z,1014.69
2022-10-07T11:42:42.548Z,1014.72
2022-10-07T11:43:42.402Z,1014.67
2022-10-07T11:44:42.388Z,1014.63
2022-10-07T11:45:42.363Z,1014.57
2022-10-07T11:46:42.436Z,1014.59
2022-10-07T11:47:42.322Z,1014.61
2022-10-07T11:48:42.301Z,1014.57
2022-10-07T11:49:42.281Z,1014.58
2022-10-07T11:50:42.262Z,1014.55
2022-10-07T11:51:42.238Z,1014.50
2022-10-07T11:52:42.223Z,1014.50
2022-10-07T11:53:42.205Z,1014.46
2022-10-07T11:54:42.190Z,1014.47
2022-10-07T11:55:42.164Z,1014.44
2022-10-07T11:56:42.157Z,1014.42
2022-10-07T11:57:42.129Z,1014.41
2022-10-07T11:58:42.099Z,1014.41
2022-10-07T11:59:42.076Z,1014.36
2022-10-07T12:00:42.066Z,1014.38
2022-10-07T12:01:42.107Z,1014.35
2022-10-07T12:02:42.196Z,1014.31
2022-10-07T12:03:41.998Z,1014.35
2022-10-07T12:04:41.980Z,1014.33
2022-10-07T12:05:41.955Z,1014.31